Etusivu
METAR-TAF:

METAR-TAF

Lentoasemat :

Nueces County Airport

Robstown, Texas, Yhdysvallat

Leveyspiiri: 27-46-42N, Pituuspiiri: 097-41-25W, korkeus merenpinnasta: 24 m

Tämänhetkinen sää

Tämä raportti tehtiin 34 minuuttia sitten, kello 12.55 UTC
Tuuli 7 kn kaakosta
Lämpötila 27°C
Kosteus 89%
Ilmanpaine 1016 hPa
Näkyvyys: 16.1 km
selkeää

METAR: KRBO 181255Z AUTO 14007KT 10SM CLR 27/25 A3001 RMK AO2 T02700254

Aika: 08:29 (13:29 UTC)


TAF: puuttuu

Säähavainnot ja -ennusteet yli 4000 lentoasemalta (METAR- ja TAF-raportit).

Käytössä olevat sääasemat on merkitty karttaan keltaisilla ja punaisilla pisteillä.

Aseta hiiri pisteen päälle nähdäksesi sääaseman nimen.

Klikkaa sitten nähdäksesi säähavainnot ja -ennusteet.

Kartan vaihtaminen: klikkaa mustalla rastilla varustettuja vihreitä pisteitä, niin voit zoomata sisään; viivalla varustettua vihreää pistettä, niin voit zoomata ulos tai vihreitä nuolia, niin pääset viereisille kartoille.


METAR-TAF: